createdAt,value
2019-05-10T00:02:53.649Z,20.50
2019-05-10T00:07:16.418Z,20.50
2019-05-10T00:11:42.305Z,20.50
2019-05-10T00:15:46.981Z,20.40
2019-05-10T00:19:51.853Z,20.40
2019-05-10T00:23:56.446Z,20.40
2019-05-10T00:28:00.977Z,20.40
2019-05-10T00:32:05.666Z,20.30
2019-05-10T00:36:10.194Z,20.30
2019-05-10T00:40:14.715Z,20.30
2019-05-10T00:44:19.238Z,20.30
2019-05-10T00:48:23.769Z,20.20
2019-05-10T00:52:28.298Z,20.20
2019-05-10T00:56:32.876Z,20.20
2019-05-10T01:00:37.437Z,20.10
2019-05-10T01:04:41.999Z,20.10
2019-05-10T01:08:46.537Z,20.10
2019-05-10T01:12:51.077Z,20.10
2019-05-10T01:16:55.601Z,20.00
2019-05-10T01:21:00.122Z,20.00
2019-05-10T01:25:06.474Z,20.00
2019-05-10T01:29:10.993Z,20.00
2019-05-10T01:33:15.531Z,20.00
2019-05-10T01:37:20.378Z,20.00
2019-05-10T01:41:24.892Z,19.90
2019-05-10T01:45:29.421Z,19.90
2019-05-10T01:49:33.962Z,19.90
2019-05-10T01:53:38.843Z,19.80
2019-05-10T01:57:43.394Z,19.90
2019-05-10T02:01:47.930Z,19.80
2019-05-10T02:05:52.537Z,19.80
2019-05-10T02:09:57.139Z,19.80
2019-05-10T02:14:01.665Z,19.80
2019-05-10T02:18:06.186Z,19.70
2019-05-10T02:22:10.713Z,19.70
2019-05-10T02:26:15.274Z,19.70
2019-05-10T02:30:20.275Z,19.70
2019-05-10T02:34:24.842Z,19.70
2019-05-10T02:38:29.412Z,19.60
2019-05-10T02:42:34.002Z,19.60
2019-05-10T02:46:38.530Z,19.60
2019-05-10T02:50:43.059Z,19.60
2019-05-10T02:54:47.752Z,19.50
2019-05-10T02:58:55.351Z,19.50
2019-05-10T03:03:00.135Z,19.50
2019-05-10T03:07:05.890Z,19.50
2019-05-10T03:11:13.594Z,19.50
2019-05-10T03:15:18.682Z,19.40
2019-05-10T03:19:23.251Z,19.40
2019-05-10T03:23:28.806Z,19.40
2019-05-10T03:27:34.255Z,19.40
2019-05-10T03:31:38.946Z,19.40
2019-05-10T03:35:43.691Z,19.40
2019-05-10T03:39:48.418Z,19.40
2019-05-10T03:43:52.930Z,19.30
2019-05-10T03:47:57.462Z,19.30
2019-05-10T03:52:02.009Z,19.30
2019-05-10T03:56:06.564Z,19.30
2019-05-10T04:00:12.299Z,19.30
2019-05-10T04:04:17.086Z,19.30
2019-05-10T04:08:21.649Z,19.20
2019-05-10T04:12:26.232Z,19.20
2019-05-10T04:16:30.761Z,19.20
2019-05-10T04:20:35.290Z,19.20
2019-05-10T04:24:39.818Z,19.20
2019-05-10T04:28:44.350Z,19.10
2019-05-10T04:32:48.931Z,19.10
2019-05-10T04:36:53.480Z,19.10
2019-05-10T04:40:58.845Z,19.10
2019-05-10T04:45:03.979Z,19.10
2019-05-10T04:49:08.548Z,19.10
2019-05-10T04:53:13.070Z,19.10
2019-05-10T04:57:17.617Z,19.00
2019-05-10T05:01:22.147Z,19.00
2019-05-10T05:05:26.716Z,19.00
2019-05-10T05:09:31.318Z,19.10
2019-05-10T05:13:36.125Z,19.10
2019-05-10T05:17:40.664Z,19.10
2019-05-10T05:21:45.257Z,19.10
2019-05-10T05:25:49.765Z,19.20
2019-05-10T05:29:54.286Z,19.30
2019-05-10T05:33:59.108Z,19.30
2019-05-10T05:38:04.325Z,19.40
2019-05-10T05:42:09.534Z,19.50
2019-05-10T05:46:14.749Z,19.60
2019-05-10T05:50:19.834Z,19.60
2019-05-10T05:54:24.450Z,19.70
2019-05-10T05:58:29.033Z,19.80
2019-05-10T06:02:33.546Z,19.90
2019-05-10T06:06:38.073Z,19.90
2019-05-10T06:10:44.018Z,20.00
2019-05-10T06:14:50.179Z,20.00
2019-05-10T06:18:55.386Z,20.10
2019-05-10T06:23:06.358Z,20.10
2019-05-10T06:27:05.393Z,20.10
2019-05-10T06:31:09.872Z,20.20
2019-05-10T06:35:19.583Z,20.20
2019-05-10T06:39:20.821Z,20.20
2019-05-10T06:43:25.341Z,20.20
2019-05-10T06:47:29.878Z,20.20
2019-05-10T06:51:34.680Z,20.20
2019-05-10T06:55:39.678Z,20.20
2019-05-10T06:59:44.210Z,20.20
2019-05-10T07:03:48.735Z,20.20
2019-05-10T07:07:53.300Z,20.20
2019-05-10T07:11:57.826Z,20.10
2019-05-10T07:16:02.433Z,20.10
2019-05-10T07:20:08.889Z,20.10
2019-05-10T07:24:18.315Z,20.10
2019-05-10T07:28:18.873Z,20.10
2019-05-10T07:32:24.639Z,20.10
2019-05-10T07:36:30.817Z,20.20
2019-05-10T07:40:35.961Z,20.20
2019-05-10T07:44:41.502Z,20.30
2019-05-10T07:48:52.663Z,20.30
2019-05-10T07:52:52.299Z,20.30
2019-05-10T07:56:56.777Z,20.40
2019-05-10T08:01:02.042Z,20.40
2019-05-10T08:05:10.765Z,20.40
2019-05-10T08:09:13.263Z,20.40
2019-05-10T08:13:21.223Z,20.50
2019-05-10T08:17:24.661Z,20.60
2019-05-10T08:21:29.817Z,20.60
2019-05-10T08:25:36.421Z,20.60
2019-05-10T08:29:42.844Z,20.60
2019-05-10T08:33:56.241Z,20.60
2019-05-10T08:37:52.966Z,20.60
2019-05-10T08:42:04.911Z,20.60
2019-05-10T08:46:03.047Z,20.60
2019-05-10T08:50:26.316Z,20.70
2019-05-10T08:54:13.885Z,20.70
2019-05-10T08:58:21.627Z,20.70
2019-05-10T09:02:29.000Z,20.70
2019-05-10T09:06:30.029Z,20.70
2019-05-10T09:10:34.805Z,20.70
2019-05-10T09:14:39.427Z,20.80
2019-05-10T09:18:50.189Z,20.80
2019-05-10T09:22:49.426Z,20.80
2019-05-10T09:26:56.985Z,20.90
2019-05-10T09:31:06.725Z,21.00
2019-05-10T09:35:09.035Z,21.00
2019-05-10T09:39:17.627Z,21.00
2019-05-10T09:43:21.207Z,21.10
2019-05-10T09:47:24.231Z,21.10
2019-05-10T09:51:30.438Z,21.10
2019-05-10T09:55:34.159Z,21.10
2019-05-10T09:59:38.597Z,21.10
2019-05-10T10:03:44.948Z,21.10
2019-05-10T10:07:48.577Z,21.20
2019-05-10T10:11:57.970Z,21.20
2019-05-10T10:15:58.487Z,21.20
2019-05-10T10:20:02.994Z,21.20
2019-05-10T10:24:15.550Z,21.20
2019-05-10T10:28:19.972Z,21.20
2019-05-10T10:32:24.614Z,21.20
2019-05-10T10:36:27.465Z,21.20
2019-05-10T10:40:35.021Z,21.20
2019-05-10T10:44:38.641Z,21.20
2019-05-10T10:48:43.652Z,21.20
2019-05-10T10:52:48.621Z,21.20
2019-05-10T10:56:53.161Z,21.20
2019-05-10T11:00:57.706Z,21.20
2019-05-10T11:05:02.234Z,21.20
2019-05-10T11:09:08.501Z,21.20
2019-05-10T11:13:18.988Z,21.30
2019-05-10T11:17:18.541Z,21.30
2019-05-10T11:21:23.283Z,21.20
2019-05-10T11:25:29.322Z,21.20
2019-05-10T11:29:33.861Z,21.20
2019-05-10T11:33:41.142Z,21.20
2019-05-10T11:37:45.657Z,21.20
2019-05-10T11:41:53.105Z,21.20
2019-05-10T11:45:55.462Z,21.20
2019-05-10T11:50:06.088Z,21.20
2019-05-10T11:54:05.415Z,21.30
2019-05-10T11:59:04.539Z,21.20
2019-05-10T12:06:21.568Z,21.20
2019-05-10T12:10:26.092Z,21.20
2019-05-10T12:14:30.622Z,21.20
2019-05-10T12:18:36.309Z,21.20
2019-05-10T12:22:47.112Z,21.20
2019-05-10T12:26:36.002Z,21.20
2019-05-10T12:30:52.801Z,21.20
2019-05-10T12:34:57.369Z,21.20
2019-05-10T12:39:01.953Z,21.30
2019-05-10T12:43:06.490Z,21.30
2019-05-10T12:47:11.445Z,21.30
2019-05-10T12:51:16.702Z,21.30
2019-05-10T12:55:21.795Z,21.30
2019-05-10T12:59:29.684Z,21.40
2019-05-10T13:03:33.714Z,21.40
2019-05-10T13:07:37.983Z,21.40
2019-05-10T13:11:42.578Z,21.40
2019-05-10T13:15:47.114Z,21.30
2019-05-10T13:19:52.821Z,21.30
2019-05-10T13:23:58.477Z,21.30
2019-05-10T13:28:03.097Z,21.30
2019-05-10T13:32:07.637Z,21.30
2019-05-10T13:36:12.149Z,21.30
2019-05-10T13:40:17.130Z,21.30
2019-05-10T13:44:21.673Z,21.40
2019-05-10T13:48:26.861Z,21.30
2019-05-10T13:52:38.054Z,21.40
2019-05-10T13:56:44.932Z,21.30
2019-05-10T14:00:43.457Z,21.40
2019-05-10T14:04:47.901Z,21.40
2019-05-10T14:08:52.433Z,21.40
2019-05-10T14:13:02.253Z,21.30
2019-05-10T14:17:02.406Z,21.30
2019-05-10T14:21:06.847Z,21.30
2019-05-10T14:25:11.433Z,21.30
2019-05-10T14:29:15.953Z,21.30
2019-05-10T14:33:20.478Z,21.30
2019-05-10T14:37:25.005Z,21.30
2019-05-10T14:41:29.534Z,21.40
2019-05-10T14:45:34.150Z,21.40
2019-05-10T14:49:42.046Z,21.40
2019-05-10T14:53:44.133Z,21.40
2019-05-10T14:57:48.858Z,21.40
2019-05-10T15:01:53.389Z,21.40
2019-05-10T15:06:01.501Z,21.40
2019-05-10T15:10:05.234Z,21.40
2019-05-10T15:14:10.093Z,21.40
2019-05-10T15:18:14.679Z,21.40
2019-05-10T15:22:23.096Z,21.40
2019-05-10T15:26:24.658Z,21.40
2019-05-10T15:30:29.106Z,21.30
2019-05-10T15:34:33.634Z,21.30
2019-05-10T15:38:40.554Z,21.30
2019-05-10T15:42:43.613Z,21.20
2019-05-10T15:46:48.076Z,21.30
2019-05-10T15:50:52.901Z,21.30
2019-05-10T15:54:57.427Z,21.30
2019-05-10T15:59:02.123Z,21.30
2019-05-10T16:03:06.691Z,21.30
2019-05-10T16:07:14.615Z,21.30
2019-05-10T16:11:19.046Z,21.40
2019-05-10T16:15:22.953Z,21.40
2019-05-10T16:19:27.553Z,21.40
2019-05-10T16:23:32.069Z,21.40
2019-05-10T16:27:41.665Z,21.40
2019-05-10T16:31:42.054Z,21.40
2019-05-10T16:35:49.840Z,21.50
2019-05-10T16:39:51.957Z,21.40
2019-05-10T16:43:58.124Z,21.40
2019-05-10T16:48:05.579Z,21.40
2019-05-10T16:52:08.103Z,21.40
2019-05-10T16:56:13.379Z,21.40
2019-05-10T17:00:19.466Z,21.30
2019-05-10T17:04:24.053Z,21.40
2019-05-10T17:08:30.833Z,21.30
2019-05-10T17:12:34.038Z,21.40
2019-05-10T17:16:38.569Z,21.40
2019-05-10T17:20:45.449Z,21.40
2019-05-10T17:24:48.544Z,21.40
2019-05-10T17:28:52.997Z,21.40
2019-05-10T17:33:03.211Z,21.30
2019-05-10T17:37:03.008Z,21.40
2019-05-10T17:41:07.465Z,21.30
2019-05-10T17:45:12.255Z,21.40
2019-05-10T17:49:18.536Z,21.40
2019-05-10T17:53:24.887Z,21.40
2019-05-10T17:57:29.621Z,21.40
2019-05-10T18:01:34.473Z,21.40
2019-05-10T18:05:41.165Z,21.40
2019-05-10T18:09:46.816Z,21.40
2019-05-10T18:13:51.430Z,21.40
2019-05-10T18:17:57.415Z,21.40
2019-05-10T18:22:05.758Z,21.40
2019-05-10T18:26:07.609Z,21.40
2019-05-10T18:30:13.482Z,21.40
2019-05-10T18:34:18.277Z,21.40
2019-05-10T18:38:22.874Z,21.40
2019-05-10T18:42:28.021Z,21.40
2019-05-10T18:46:34.946Z,21.40
2019-05-10T18:50:44.520Z,21.40
2019-05-10T18:54:44.967Z,21.40
2019-05-10T18:58:49.479Z,21.40
2019-05-10T19:02:55.748Z,21.40
2019-05-10T19:07:09.975Z,21.40
2019-05-10T19:11:06.371Z,21.40
2019-05-10T19:15:15.416Z,21.40
2019-05-10T19:19:18.490Z,21.40
2019-05-10T19:23:23.097Z,21.40
2019-05-10T19:27:27.660Z,21.40
2019-05-10T19:31:38.214Z,21.40
2019-05-10T19:35:37.909Z,21.40
2019-05-10T19:39:42.594Z,21.40
2019-05-10T19:43:50.031Z,21.40
2019-05-10T19:47:55.827Z,21.40
2019-05-10T19:51:58.746Z,21.40
2019-05-10T19:56:04.162Z,21.40
2019-05-10T20:00:09.441Z,21.40
2019-05-10T20:04:13.970Z,21.40
2019-05-10T20:08:18.585Z,21.40
2019-05-10T20:12:24.253Z,21.40
2019-05-10T20:16:28.801Z,21.40
2019-05-10T20:20:33.341Z,21.40
2019-05-10T20:24:37.881Z,21.40
2019-05-10T20:28:42.434Z,21.40
2019-05-10T20:32:46.969Z,21.40
2019-05-10T20:36:51.574Z,21.40
2019-05-10T20:40:56.114Z,21.40
2019-05-10T20:45:07.268Z,21.40
2019-05-10T20:49:06.898Z,21.40
2019-05-10T20:53:11.425Z,21.40
2019-05-10T20:57:17.726Z,21.30
2019-05-10T21:01:22.254Z,21.40
2019-05-10T21:05:26.793Z,21.40
2019-05-10T21:09:31.395Z,21.40
2019-05-10T21:13:35.901Z,21.40
2019-05-10T21:17:40.485Z,21.40
2019-05-10T21:21:45.038Z,21.40
2019-05-10T21:25:49.590Z,21.30
2019-05-10T21:29:54.134Z,21.30
2019-05-10T21:34:09.146Z,21.30
2019-05-10T21:38:04.089Z,21.30
2019-05-10T21:42:08.548Z,21.20
2019-05-10T21:46:13.082Z,21.20
2019-05-10T21:50:17.631Z,21.10
2019-05-10T21:54:22.268Z,21.10
2019-05-10T21:58:26.797Z,21.10
2019-05-10T22:02:31.337Z,21.00
2019-05-10T22:06:35.870Z,21.00
2019-05-10T22:10:40.449Z,21.00
2019-05-10T22:14:44.978Z,21.00
2019-05-10T22:18:51.438Z,20.90
2019-05-10T22:22:55.271Z,20.90
2019-05-10T22:26:59.851Z,20.80
2019-05-10T22:31:05.109Z,20.80
2019-05-10T22:35:11.483Z,20.80
2019-05-10T22:39:16.032Z,20.70
2019-05-10T22:43:20.621Z,20.70
2019-05-10T22:47:25.621Z,20.60
2019-05-10T22:51:30.361Z,20.60
2019-05-10T22:55:34.897Z,20.60
2019-05-10T22:59:39.408Z,20.60
2019-05-10T23:03:43.960Z,20.50
2019-05-10T23:07:48.485Z,20.50
2019-05-10T23:11:53.023Z,20.50
2019-05-10T23:15:58.335Z,20.40
2019-05-10T23:20:02.920Z,20.40
2019-05-10T23:24:07.455Z,20.40
2019-05-10T23:28:11.982Z,20.30
2019-05-10T23:32:16.514Z,20.30
2019-05-10T23:36:21.046Z,20.30
2019-05-10T23:40:25.566Z,20.30
2019-05-10T23:44:30.104Z,20.30
2019-05-10T23:48:34.637Z,20.30
2019-05-10T23:52:39.175Z,20.20
2019-05-10T23:56:43.763Z,20.20
